sensor_id;sensor_type;location;lat;lon;timestamp;P1;durP1;ratioP1;P2;durP2;ratioP2
17141;SDS011;32805;53.556;9.944;2023-02-01T00:02:01;20.48;;;3.05;;
17141;SDS011;32805;53.556;9.944;2023-02-01T00:04:29;16.08;;;3.60;;
17141;SDS011;32805;53.556;9.944;2023-02-01T00:06:57;16.27;;;2.67;;
17141;SDS011;32805;53.556;9.944;2023-02-01T00:09:25;18.60;;;4.38;;
17141;SDS011;32805;53.556;9.944;2023-02-01T00:11:53;21.10;;;4.75;;
17141;SDS011;32805;53.556;9.944;2023-02-01T00:14:21;19.67;;;4.18;;
17141;SDS011;32805;53.556;9.944;2023-02-01T00:16:49;18.38;;;3.72;;
17141;SDS011;32805;53.556;9.944;2023-02-01T00:19:18;17.08;;;2.92;;
17141;SDS011;32805;53.556;9.944;2023-02-01T00:21:45;18.95;;;3.22;;
17141;SDS011;32805;53.556;9.944;2023-02-01T00:24:13;20.27;;;3.55;;
17141;SDS011;32805;53.556;9.944;2023-02-01T00:26:41;21.63;;;3.97;;
17141;SDS011;32805;53.556;9.944;2023-02-01T00:29:11;11.35;;;3.40;;
17141;SDS011;32805;53.556;9.944;2023-02-01T00:31:40;12.23;;;3.58;;
17141;SDS011;32805;53.556;9.944;2023-02-01T00:34:09;17.42;;;3.70;;
17141;SDS011;32805;53.556;9.944;2023-02-01T00:36:40;23.42;;;3.92;;
17141;SDS011;32805;53.556;9.944;2023-02-01T00:39:09;16.63;;;3.63;;
17141;SDS011;32805;53.556;9.944;2023-02-01T00:41:37;17.35;;;3.20;;
17141;SDS011;32805;53.556;9.944;2023-02-01T00:44:06;17.48;;;3.15;;
17141;SDS011;32805;53.556;9.944;2023-02-01T00:46:34;20.50;;;4.43;;
17141;SDS011;32805;53.556;9.944;2023-02-01T00:49:02;18.38;;;3.58;;
17141;SDS011;32805;53.556;9.944;2023-02-01T00:51:30;18.40;;;3.58;;
17141;SDS011;32805;53.556;9.944;2023-02-01T00:53:59;18.50;;;4.32;;
17141;SDS011;32805;53.556;9.944;2023-02-01T00:56:26;20.30;;;4.07;;
17141;SDS011;32805;53.556;9.944;2023-02-01T00:58:54;16.63;;;3.67;;
17141;SDS011;32805;53.556;9.944;2023-02-01T01:01:23;23.13;;;3.78;;
17141;SDS011;32805;53.556;9.944;2023-02-01T01:03:52;22.33;;;3.25;;
17141;SDS011;32805;53.556;9.944;2023-02-01T01:06:22;17.00;;;4.13;;
17141;SDS011;32805;53.556;9.944;2023-02-01T01:08:51;23.50;;;4.90;;
17141;SDS011;32805;53.556;9.944;2023-02-01T01:11:21;18.60;;;4.20;;
17141;SDS011;32805;53.556;9.944;2023-02-01T01:13:51;23.35;;;5.03;;
17141;SDS011;32805;53.556;9.944;2023-02-01T01:16:20;20.10;;;4.10;;
17141;SDS011;32805;53.556;9.944;2023-02-01T01:18:49;16.70;;;3.90;;
17141;SDS011;32805;53.556;9.944;2023-02-01T01:21:18;17.60;;;3.50;;
17141;SDS011;32805;53.556;9.944;2023-02-01T01:23:46;21.83;;;4.90;;
17141;SDS011;32805;53.556;9.944;2023-02-01T01:26:15;22.02;;;3.63;;
17141;SDS011;32805;53.556;9.944;2023-02-01T01:28:45;19.83;;;4.43;;
17141;SDS011;32805;53.556;9.944;2023-02-01T01:31:14;19.42;;;3.67;;
17141;SDS011;32805;53.556;9.944;2023-02-01T01:33:43;22.25;;;5.20;;
17141;SDS011;32805;53.556;9.944;2023-02-01T01:36:14;16.67;;;3.70;;
17141;SDS011;32805;53.556;9.944;2023-02-01T01:38:42;20.30;;;4.70;;
17141;SDS011;32805;53.556;9.944;2023-02-01T01:41:12;23.75;;;3.85;;
17141;SDS011;32805;53.556;9.944;2023-02-01T01:43:48;20.73;;;3.78;;
17141;SDS011;32805;53.556;9.944;2023-02-01T01:46:19;22.40;;;5.03;;
17141;SDS011;32805;53.556;9.944;2023-02-01T01:48:48;17.95;;;3.58;;
17141;SDS011;32805;53.556;9.944;2023-02-01T01:51:20;26.85;;;5.25;;
17141;SDS011;32805;53.556;9.944;2023-02-01T01:53:55;19.73;;;4.32;;
17141;SDS011;32805;53.556;9.944;2023-02-01T01:56:27;23.65;;;4.13;;
17141;SDS011;32805;53.556;9.944;2023-02-01T01:58:58;20.13;;;3.72;;
17141;SDS011;32805;53.556;9.944;2023-02-01T02:01:27;18.45;;;3.67;;
17141;SDS011;32805;53.556;9.944;2023-02-01T02:03:55;19.13;;;3.88;;
17141;SDS011;32805;53.556;9.944;2023-02-01T02:06:27;17.58;;;3.67;;
17141;SDS011;32805;53.556;9.944;2023-02-01T02:09:01;18.80;;;3.40;;
17141;SDS011;32805;53.556;9.944;2023-02-01T02:11:32;21.60;;;4.10;;
17141;SDS011;32805;53.556;9.944;2023-02-01T02:14:01;28.98;;;4.82;;
17141;SDS011;32805;53.556;9.944;2023-02-01T02:16:38;21.35;;;3.88;;
17141;SDS011;32805;53.556;9.944;2023-02-01T02:22:18;22.10;;;4.35;;
17141;SDS011;32805;53.556;9.944;2023-02-01T02:25:22;20.95;;;4.85;;
17141;SDS011;32805;53.556;9.944;2023-02-01T02:28:11;14.13;;;3.67;;
17141;SDS011;32805;53.556;9.944;2023-02-01T02:31:04;24.75;;;4.70;;
17141;SDS011;32805;53.556;9.944;2023-02-01T02:33:53;31.20;;;4.85;;
17141;SDS011;32805;53.556;9.944;2023-02-01T02:36:30;19.48;;;4.05;;
17141;SDS011;32805;53.556;9.944;2023-02-01T02:39:06;19.48;;;4.00;;
17141;SDS011;32805;53.556;9.944;2023-02-01T02:41:41;16.55;;;3.75;;
17141;SDS011;32805;53.556;9.944;2023-02-01T02:44:44;23.45;;;4.70;;
17141;SDS011;32805;53.556;9.944;2023-02-01T02:47:33;26.20;;;4.38;;
17141;SDS011;32805;53.556;9.944;2023-02-01T02:50:14;26.33;;;4.20;;
17141;SDS011;32805;53.556;9.944;2023-02-01T02:53:09;19.10;;;4.40;;
17141;SDS011;32805;53.556;9.944;2023-02-01T02:55:59;19.50;;;3.88;;
17141;SDS011;32805;53.556;9.944;2023-02-01T02:58:45;20.50;;;3.78;;
17141;SDS011;32805;53.556;9.944;2023-02-01T03:01:32;18.95;;;4.60;;
17141;SDS011;32805;53.556;9.944;2023-02-01T03:04:17;21.27;;;4.78;;
17141;SDS011;32805;53.556;9.944;2023-02-01T03:06:49;20.77;;;4.80;;
17141;SDS011;32805;53.556;9.944;2023-02-01T03:09:19;20.27;;;3.67;;
17141;SDS011;32805;53.556;9.944;2023-02-01T03:11:54;22.77;;;4.50;;
17141;SDS011;32805;53.556;9.944;2023-02-01T03:14:43;26.30;;;3.90;;
17141;SDS011;32805;53.556;9.944;2023-02-01T03:17:15;20.83;;;3.92;;
17141;SDS011;32805;53.556;9.944;2023-02-01T03:19:48;22.63;;;4.00;;
17141;SDS011;32805;53.556;9.944;2023-02-01T03:22:21;20.23;;;3.28;;
17141;SDS011;32805;53.556;9.944;2023-02-01T03:24:52;20.17;;;3.65;;
17141;SDS011;32805;53.556;9.944;2023-02-01T03:27:22;20.60;;;3.75;;
17141;SDS011;32805;53.556;9.944;2023-02-01T03:29:54;14.82;;;3.10;;
17141;SDS011;32805;53.556;9.944;2023-02-01T03:32:27;21.52;;;3.47;;
17141;SDS011;32805;53.556;9.944;2023-02-01T03:34:55;18.23;;;3.08;;
17141;SDS011;32805;53.556;9.944;2023-02-01T03:37:26;18.05;;;3.20;;
17141;SDS011;32805;53.556;9.944;2023-02-01T03:39:57;15.95;;;2.67;;
17141;SDS011;32805;53.556;9.944;2023-02-01T03:42:30;13.40;;;2.40;;
17141;SDS011;32805;53.556;9.944;2023-02-01T03:45:06;10.02;;;2.63;;
17141;SDS011;32805;53.556;9.944;2023-02-01T03:47:37;11.23;;;2.10;;
17141;SDS011;32805;53.556;9.944;2023-02-01T03:50:10;9.40;;;2.58;;
17141;SDS011;32805;53.556;9.944;2023-02-01T03:52:43;14.68;;;2.75;;
17141;SDS011;32805;53.556;9.944;2023-02-01T03:55:14;13.25;;;2.75;;
17141;SDS011;32805;53.556;9.944;2023-02-01T03:57:44;12.90;;;3.22;;
17141;SDS011;32805;53.556;9.944;2023-02-01T04:00:16;14.93;;;3.33;;
17141;SDS011;32805;53.556;9.944;2023-02-01T04:02:49;14.43;;;3.22;;
17141;SDS011;32805;53.556;9.944;2023-02-01T04:05:17;22.83;;;3.97;;
17141;SDS011;32805;53.556;9.944;2023-02-01T04:07:55;18.55;;;3.35;;
17141;SDS011;32805;53.556;9.944;2023-02-01T04:10:23;15.95;;;3.50;;
17141;SDS011;32805;53.556;9.944;2023-02-01T04:12:51;21.35;;;4.25;;
17141;SDS011;32805;53.556;9.944;2023-02-01T04:15:19;16.45;;;3.58;;
17141;SDS011;32805;53.556;9.944;2023-02-01T04:17:47;15.43;;;3.20;;
17141;SDS011;32805;53.556;9.944;2023-02-01T04:20:15;19.83;;;3.30;;
17141;SDS011;32805;53.556;9.944;2023-02-01T04:22:43;13.27;;;3.08;;
17141;SDS011;32805;53.556;9.944;2023-02-01T04:25:12;11.68;;;2.70;;
17141;SDS011;32805;53.556;9.944;2023-02-01T04:27:40;10.15;;;2.13;;
17141;SDS011;32805;53.556;9.944;2023-02-01T04:30:08;15.02;;;4.10;;
17141;SDS011;32805;53.556;9.944;2023-02-01T04:32:37;15.30;;;4.25;;
17141;SDS011;32805;53.556;9.944;2023-02-01T04:35:05;13.77;;;2.72;;
17141;SDS011;32805;53.556;9.944;2023-02-01T04:37:34;12.18;;;3.15;;
17141;SDS011;32805;53.556;9.944;2023-02-01T04:40:02;12.88;;;2.83;;
17141;SDS011;32805;53.556;9.944;2023-02-01T04:42:31;14.13;;;2.88;;
17141;SDS011;32805;53.556;9.944;2023-02-01T04:44:59;11.07;;;3.05;;
17141;SDS011;32805;53.556;9.944;2023-02-01T04:47:26;16.17;;;2.30;;
17141;SDS011;32805;53.556;9.944;2023-02-01T04:49:54;15.93;;;3.30;;
17141;SDS011;32805;53.556;9.944;2023-02-01T04:52:22;9.88;;;2.72;;
17141;SDS011;32805;53.556;9.944;2023-02-01T04:54:49;17.08;;;2.47;;
17141;SDS011;32805;53.556;9.944;2023-02-01T04:57:17;10.68;;;1.90;;
17141;SDS011;32805;53.556;9.944;2023-02-01T04:59:46;12.10;;;2.47;;
17141;SDS011;32805;53.556;9.944;2023-02-01T05:02:14;5.70;;;1.58;;
17141;SDS011;32805;53.556;9.944;2023-02-01T05:04:41;12.43;;;3.17;;
17141;SDS011;32805;53.556;9.944;2023-02-01T05:07:09;10.63;;;1.80;;
17141;SDS011;32805;53.556;9.944;2023-02-01T05:09:37;7.10;;;1.70;;
17141;SDS011;32805;53.556;9.944;2023-02-01T05:12:05;3.90;;;1.42;;
17141;SDS011;32805;53.556;9.944;2023-02-01T05:14:52;8.93;;;1.77;;
17141;SDS011;32805;53.556;9.944;2023-02-01T05:17:19;4.20;;;1.23;;
17141;SDS011;32805;53.556;9.944;2023-02-01T05:19:47;5.28;;;0.82;;
17141;SDS011;32805;53.556;9.944;2023-02-01T05:22:14;2.35;;;0.85;;
17141;SDS011;32805;53.556;9.944;2023-02-01T05:24:42;2.25;;;0.75;;
17141;SDS011;32805;53.556;9.944;2023-02-01T05:27:10;1.52;;;0.65;;
17141;SDS011;32805;53.556;9.944;2023-02-01T05:29:37;2.47;;;0.70;;
17141;SDS011;32805;53.556;9.944;2023-02-01T05:32:08;1.33;;;0.40;;
17141;SDS011;32805;53.556;9.944;2023-02-01T05:34:47;1.60;;;0.73;;
17141;SDS011;32805;53.556;9.944;2023-02-01T05:37:15;1.98;;;0.80;;
17141;SDS011;32805;53.556;9.944;2023-02-01T05:39:43;3.92;;;0.88;;
17141;SDS011;32805;53.556;9.944;2023-02-01T05:42:11;3.42;;;1.00;;
17141;SDS011;32805;53.556;9.944;2023-02-01T05:44:38;3.10;;;0.70;;
17141;SDS011;32805;53.556;9.944;2023-02-01T05:47:07;2.25;;;0.50;;
17141;SDS011;32805;53.556;9.944;2023-02-01T05:49:35;2.47;;;0.65;;
17141;SDS011;32805;53.556;9.944;2023-02-01T05:52:03;3.15;;;0.80;;
17141;SDS011;32805;53.556;9.944;2023-02-01T05:54:31;3.85;;;0.70;;
17141;SDS011;32805;53.556;9.944;2023-02-01T05:57:01;1.55;;;0.70;;
17141;SDS011;32805;53.556;9.944;2023-02-01T05:59:29;1.30;;;0.60;;
17141;SDS011;32805;53.556;9.944;2023-02-01T06:01:57;1.60;;;0.60;;
17141;SDS011;32805;53.556;9.944;2023-02-01T06:04:26;5.72;;;1.10;;
17141;SDS011;32805;53.556;9.944;2023-02-01T06:06:54;1.20;;;0.90;;
17141;SDS011;32805;53.556;9.944;2023-02-01T06:09:21;1.50;;;0.75;;
17141;SDS011;32805;53.556;9.944;2023-02-01T06:11:49;0.93;;;0.60;;
17141;SDS011;32805;53.556;9.944;2023-02-01T06:14:16;1.35;;;0.82;;
17141;SDS011;32805;53.556;9.944;2023-02-01T06:16:44;4.75;;;1.10;;
17141;SDS011;32805;53.556;9.944;2023-02-01T06:19:12;1.50;;;1.00;;
17141;SDS011;32805;53.556;9.944;2023-02-01T06:21:42;2.55;;;0.90;;
17141;SDS011;32805;53.556;9.944;2023-02-01T06:24:09;2.42;;;1.20;;
17141;SDS011;32805;53.556;9.944;2023-02-01T06:26:37;7.57;;;1.30;;
17141;SDS011;32805;53.556;9.944;2023-02-01T06:29:05;5.00;;;1.40;;
17141;SDS011;32805;53.556;9.944;2023-02-01T06:31:33;4.20;;;1.50;;
17141;SDS011;32805;53.556;9.944;2023-02-01T06:34:01;7.85;;;1.60;;
17141;SDS011;32805;53.556;9.944;2023-02-01T06:36:29;7.45;;;2.03;;
17141;SDS011;32805;53.556;9.944;2023-02-01T06:38:58;8.45;;;1.70;;
17141;SDS011;32805;53.556;9.944;2023-02-01T06:41:26;5.75;;;1.63;;
17141;SDS011;32805;53.556;9.944;2023-02-01T06:43:55;8.88;;;1.67;;
17141;SDS011;32805;53.556;9.944;2023-02-01T06:46:22;5.88;;;1.85;;
17141;SDS011;32805;53.556;9.944;2023-02-01T06:48:50;8.65;;;1.52;;
17141;SDS011;32805;53.556;9.944;2023-02-01T06:51:19;11.10;;;2.40;;
17141;SDS011;32805;53.556;9.944;2023-02-01T06:53:48;9.60;;;1.48;;
17141;SDS011;32805;53.556;9.944;2023-02-01T06:56:17;11.38;;;2.88;;
17141;SDS011;32805;53.556;9.944;2023-02-01T06:58:45;6.78;;;1.83;;
17141;SDS011;32805;53.556;9.944;2023-02-01T07:01:14;14.30;;;2.97;;
17141;SDS011;32805;53.556;9.944;2023-02-01T07:03:43;14.98;;;2.80;;
17141;SDS011;32805;53.556;9.944;2023-02-01T07:06:14;17.63;;;2.50;;
17141;SDS011;32805;53.556;9.944;2023-02-01T07:08:42;16.40;;;3.13;;
17141;SDS011;32805;53.556;9.944;2023-02-01T07:11:10;15.75;;;3.38;;
17141;SDS011;32805;53.556;9.944;2023-02-01T07:13:42;18.73;;;3.00;;
17141;SDS011;32805;53.556;9.944;2023-02-01T07:16:10;21.45;;;3.72;;
17141;SDS011;32805;53.556;9.944;2023-02-01T07:18:39;23.35;;;3.55;;
17141;SDS011;32805;53.556;9.944;2023-02-01T07:21:07;25.67;;;3.97;;
17141;SDS011;32805;53.556;9.944;2023-02-01T07:23:35;22.60;;;4.07;;
17141;SDS011;32805;53.556;9.944;2023-02-01T07:26:05;17.92;;;3.53;;
17141;SDS011;32805;53.556;9.944;2023-02-01T07:28:35;18.63;;;3.70;;
17141;SDS011;32805;53.556;9.944;2023-02-01T07:31:06;30.65;;;4.15;;
17141;SDS011;32805;53.556;9.944;2023-02-01T07:33:35;17.50;;;4.13;;
17141;SDS011;32805;53.556;9.944;2023-02-01T07:36:04;31.35;;;5.03;;
17141;SDS011;32805;53.556;9.944;2023-02-01T07:38:38;33.92;;;5.10;;
17141;SDS011;32805;53.556;9.944;2023-02-01T07:41:07;25.15;;;3.97;;
17141;SDS011;32805;53.556;9.944;2023-02-01T07:43:36;29.70;;;5.55;;
17141;SDS011;32805;53.556;9.944;2023-02-01T07:46:04;27.65;;;4.60;;
17141;SDS011;32805;53.556;9.944;2023-02-01T07:48:33;19.88;;;4.40;;
17141;SDS011;32805;53.556;9.944;2023-02-01T07:51:02;26.73;;;3.95;;
17141;SDS011;32805;53.556;9.944;2023-02-01T07:53:31;34.17;;;5.80;;
17141;SDS011;32805;53.556;9.944;2023-02-01T07:56:08;28.50;;;4.63;;
17141;SDS011;32805;53.556;9.944;2023-02-01T07:58:38;37.90;;;6.05;;
17141;SDS011;32805;53.556;9.944;2023-02-01T08:01:10;28.80;;;4.75;;
17141;SDS011;32805;53.556;9.944;2023-02-01T08:03:51;31.35;;;5.03;;
17141;SDS011;32805;53.556;9.944;2023-02-01T08:06:20;33.38;;;5.28;;
17141;SDS011;32805;53.556;9.944;2023-02-01T08:08:49;25.60;;;4.68;;
17141;SDS011;32805;53.556;9.944;2023-02-01T08:11:17;29.98;;;4.53;;
17141;SDS011;32805;53.556;9.944;2023-02-01T08:13:46;16.42;;;3.85;;
17141;SDS011;32805;53.556;9.944;2023-02-01T08:16:17;22.80;;;5.18;;
17141;SDS011;32805;53.556;9.944;2023-02-01T08:18:46;24.55;;;4.82;;
17141;SDS011;32805;53.556;9.944;2023-02-01T08:21:14;28.13;;;4.97;;
17141;SDS011;32805;53.556;9.944;2023-02-01T08:23:44;27.85;;;4.13;;
17141;SDS011;32805;53.556;9.944;2023-02-01T08:26:12;22.73;;;4.55;;
17141;SDS011;32805;53.556;9.944;2023-02-01T08:28:45;30.30;;;5.03;;
17141;SDS011;32805;53.556;9.944;2023-02-01T08:31:17;28.20;;;5.35;;
17141;SDS011;32805;53.556;9.944;2023-02-01T08:33:48;34.08;;;6.90;;
17141;SDS011;32805;53.556;9.944;2023-02-01T08:36:17;28.65;;;6.35;;
17141;SDS011;32805;53.556;9.944;2023-02-01T08:38:46;22.35;;;4.00;;
17141;SDS011;32805;53.556;9.944;2023-02-01T08:41:14;25.70;;;4.80;;
17141;SDS011;32805;53.556;9.944;2023-02-01T08:43:44;25.30;;;4.32;;
17141;SDS011;32805;53.556;9.944;2023-02-01T08:46:12;19.30;;;3.17;;
17141;SDS011;32805;53.556;9.944;2023-02-01T08:48:41;24.50;;;3.97;;
17141;SDS011;32805;53.556;9.944;2023-02-01T08:51:10;22.05;;;4.97;;
17141;SDS011;32805;53.556;9.944;2023-02-01T08:53:41;17.23;;;3.75;;
17141;SDS011;32805;53.556;9.944;2023-02-01T08:56:10;25.27;;;4.40;;
17141;SDS011;32805;53.556;9.944;2023-02-01T08:58:39;25.42;;;4.95;;
17141;SDS011;32805;53.556;9.944;2023-02-01T09:01:08;23.10;;;3.90;;
17141;SDS011;32805;53.556;9.944;2023-02-01T09:03:39;25.98;;;4.80;;
17141;SDS011;32805;53.556;9.944;2023-02-01T09:06:10;22.75;;;4.50;;
17141;SDS011;32805;53.556;9.944;2023-02-01T09:08:39;23.88;;;3.80;;
17141;SDS011;32805;53.556;9.944;2023-02-01T09:11:10;15.07;;;3.70;;
17141;SDS011;32805;53.556;9.944;2023-02-01T09:13:39;17.92;;;3.80;;
17141;SDS011;32805;53.556;9.944;2023-02-01T09:16:08;19.23;;;3.42;;
17141;SDS011;32805;53.556;9.944;2023-02-01T09:18:36;21.15;;;3.95;;
17141;SDS011;32805;53.556;9.944;2023-02-01T09:21:23;25.95;;;4.57;;
17141;SDS011;32805;53.556;9.944;2023-02-01T09:23:51;14.82;;;2.97;;
17141;SDS011;32805;53.556;9.944;2023-02-01T09:26:19;29.50;;;4.80;;
17141;SDS011;32805;53.556;9.944;2023-02-01T09:28:58;15.90;;;4.00;;
17141;SDS011;32805;53.556;9.944;2023-02-01T09:31:26;13.75;;;3.20;;
17141;SDS011;32805;53.556;9.944;2023-02-01T09:34:04;17.63;;;3.33;;
17141;SDS011;32805;53.556;9.944;2023-02-01T09:36:37;20.58;;;3.90;;
17141;SDS011;32805;53.556;9.944;2023-02-01T09:39:04;20.48;;;4.93;;
17141;SDS011;32805;53.556;9.944;2023-02-01T09:41:35;24.95;;;3.45;;
17141;SDS011;32805;53.556;9.944;2023-02-01T09:44:13;22.25;;;4.25;;
17141;SDS011;32805;53.556;9.944;2023-02-01T09:46:55;14.73;;;2.92;;
17141;SDS011;32805;53.556;9.944;2023-02-01T09:49:24;17.73;;;3.40;;
17141;SDS011;32805;53.556;9.944;2023-02-01T09:51:57;18.13;;;3.63;;
17141;SDS011;32805;53.556;9.944;2023-02-01T09:54:29;23.40;;;4.43;;
17141;SDS011;32805;53.556;9.944;2023-02-01T09:57:13;20.15;;;3.33;;
17141;SDS011;32805;53.556;9.944;2023-02-01T09:59:46;15.77;;;2.85;;
17141;SDS011;32805;53.556;9.944;2023-02-01T10:02:17;25.10;;;4.20;;
17141;SDS011;32805;53.556;9.944;2023-02-01T10:04:47;13.38;;;3.35;;
17141;SDS011;32805;53.556;9.944;2023-02-01T10:07:20;20.05;;;3.40;;
17141;SDS011;32805;53.556;9.944;2023-02-01T10:09:58;10.85;;;2.60;;
17141;SDS011;32805;53.556;9.944;2023-02-01T10:12:34;16.45;;;4.05;;
17141;SDS011;32805;53.556;9.944;2023-02-01T10:15:24;17.67;;;2.83;;
17141;SDS011;32805;53.556;9.944;2023-02-01T10:18:04;11.77;;;2.90;;
17141;SDS011;32805;53.556;9.944;2023-02-01T10:20:47;14.20;;;3.17;;
17141;SDS011;32805;53.556;9.944;2023-02-01T10:23:38;14.43;;;3.10;;
17141;SDS011;32805;53.556;9.944;2023-02-01T10:26:29;12.95;;;3.15;;
17141;SDS011;32805;53.556;9.944;2023-02-01T10:29:01;15.70;;;2.55;;
17141;SDS011;32805;53.556;9.944;2023-02-01T10:31:31;16.13;;;3.22;;
17141;SDS011;32805;53.556;9.944;2023-02-01T10:34:06;14.90;;;2.92;;
17141;SDS011;32805;53.556;9.944;2023-02-01T10:36:46;17.15;;;3.33;;
17141;SDS011;32805;53.556;9.944;2023-02-01T10:39:21;19.08;;;3.53;;
17141;SDS011;32805;53.556;9.944;2023-02-01T10:41:50;13.38;;;3.20;;
17141;SDS011;32805;53.556;9.944;2023-02-01T10:44:19;14.43;;;2.67;;
17141;SDS011;32805;53.556;9.944;2023-02-01T10:46:51;16.13;;;3.22;;
17141;SDS011;32805;53.556;9.944;2023-02-01T10:49:20;14.73;;;3.53;;
17141;SDS011;32805;53.556;9.944;2023-02-01T10:51:54;27.50;;;3.97;;
17141;SDS011;32805;53.556;9.944;2023-02-01T10:54:33;14.48;;;4.10;;
17141;SDS011;32805;53.556;9.944;2023-02-01T10:57:06;16.50;;;2.72;;
17141;SDS011;32805;53.556;9.944;2023-02-01T10:59:34;15.55;;;3.08;;
17141;SDS011;32805;53.556;9.944;2023-02-01T11:02:13;18.73;;;3.72;;
17141;SDS011;32805;53.556;9.944;2023-02-01T11:04:46;15.73;;;3.53;;
17141;SDS011;32805;53.556;9.944;2023-02-01T11:07:16;22.30;;;4.05;;
17141;SDS011;32805;53.556;9.944;2023-02-01T11:09:49;17.38;;;3.20;;
17141;SDS011;32805;53.556;9.944;2023-02-01T11:12:22;15.45;;;2.88;;
17141;SDS011;32805;53.556;9.944;2023-02-01T11:14:56;16.25;;;3.17;;
17141;SDS011;32805;53.556;9.944;2023-02-01T11:17:27;15.65;;;3.10;;
17141;SDS011;32805;53.556;9.944;2023-02-01T11:19:56;24.02;;;4.15;;
17141;SDS011;32805;53.556;9.944;2023-02-01T11:22:26;20.60;;;3.88;;
17141;SDS011;32805;53.556;9.944;2023-02-01T11:24:57;23.30;;;4.03;;
17141;SDS011;32805;53.556;9.944;2023-02-01T11:27:28;16.23;;;4.35;;
17141;SDS011;32805;53.556;9.944;2023-02-01T11:29:57;18.38;;;4.05;;
17141;SDS011;32805;53.556;9.944;2023-02-01T11:32:28;11.98;;;3.55;;
17141;SDS011;32805;53.556;9.944;2023-02-01T11:34:59;10.05;;;2.80;;
17141;SDS011;32805;53.556;9.944;2023-02-01T11:37:29;19.42;;;4.43;;
17141;SDS011;32805;53.556;9.944;2023-02-01T11:40:03;17.10;;;3.15;;
17141;SDS011;32805;53.556;9.944;2023-02-01T11:42:53;14.20;;;2.70;;
17141;SDS011;32805;53.556;9.944;2023-02-01T11:45:24;14.07;;;3.13;;
17141;SDS011;32805;53.556;9.944;2023-02-01T11:47:54;17.52;;;4.15;;
17141;SDS011;32805;53.556;9.944;2023-02-01T11:50:25;14.85;;;2.97;;
17141;SDS011;32805;53.556;9.944;2023-02-01T11:53:13;12.85;;;3.45;;
17141;SDS011;32805;53.556;9.944;2023-02-01T11:55:58;14.98;;;3.08;;
17141;SDS011;32805;53.556;9.944;2023-02-01T11:58:37;18.33;;;2.95;;
17141;SDS011;32805;53.556;9.944;2023-02-01T12:01:21;14.88;;;2.72;;
17141;SDS011;32805;53.556;9.944;2023-02-01T12:07:11;11.20;;;2.67;;
17141;SDS011;32805;53.556;9.944;2023-02-01T12:09:51;13.98;;;3.08;;
17141;SDS011;32805;53.556;9.944;2023-02-01T12:12:33;8.68;;;1.80;;
17141;SDS011;32805;53.556;9.944;2023-02-01T12:15:15;13.48;;;2.78;;
17141;SDS011;32805;53.556;9.944;2023-02-01T12:18:01;14.05;;;3.25;;
17141;SDS011;32805;53.556;9.944;2023-02-01T12:20:52;18.30;;;2.55;;
17141;SDS011;32805;53.556;9.944;2023-02-01T12:23:38;15.13;;;2.58;;
17141;SDS011;32805;53.556;9.944;2023-02-01T12:26:21;13.00;;;2.42;;
17141;SDS011;32805;53.556;9.944;2023-02-01T12:29:07;5.78;;;2.60;;
17141;SDS011;32805;53.556;9.944;2023-02-01T12:34:41;5.90;;;1.95;;
17141;SDS011;32805;53.556;9.944;2023-02-01T12:37:28;9.10;;;1.80;;
17141;SDS011;32805;53.556;9.944;2023-02-01T12:40:10;6.30;;;1.45;;
17141;SDS011;32805;53.556;9.944;2023-02-01T12:42:52;5.55;;;1.00;;
17141;SDS011;32805;53.556;9.944;2023-02-01T12:45:30;3.45;;;1.30;;
17141;SDS011;32805;53.556;9.944;2023-02-01T12:48:02;4.93;;;1.10;;
17141;SDS011;32805;53.556;9.944;2023-02-01T12:50:39;3.47;;;1.20;;
17141;SDS011;32805;53.556;9.944;2023-02-01T12:53:14;3.00;;;0.95;;
17141;SDS011;32805;53.556;9.944;2023-02-01T12:55:47;3.28;;;0.93;;
17141;SDS011;32805;53.556;9.944;2023-02-01T12:58:18;6.95;;;1.02;;
17141;SDS011;32805;53.556;9.944;2023-02-01T13:00:51;2.25;;;1.00;;
17141;SDS011;32805;53.556;9.944;2023-02-01T13:03:28;2.22;;;0.77;;
17141;SDS011;32805;53.556;9.944;2023-02-01T13:06:02;0.93;;;0.70;;
17141;SDS011;32805;53.556;9.944;2023-02-01T13:08:36;1.63;;;1.05;;
17141;SDS011;32805;53.556;9.944;2023-02-01T13:11:09;2.88;;;1.27;;
17141;SDS011;32805;53.556;9.944;2023-02-01T13:13:44;2.20;;;1.10;;
17141;SDS011;32805;53.556;9.944;2023-02-01T13:16:18;4.28;;;1.30;;
17141;SDS011;32805;53.556;9.944;2023-02-01T13:18:53;4.65;;;1.20;;
17141;SDS011;32805;53.556;9.944;2023-02-01T13:21:29;2.60;;;1.23;;
17141;SDS011;32805;53.556;9.944;2023-02-01T13:24:00;3.10;;;1.02;;
17141;SDS011;32805;53.556;9.944;2023-02-01T13:26:27;1.42;;;0.93;;
17141;SDS011;32805;53.556;9.944;2023-02-01T13:28:56;1.75;;;1.00;;
17141;SDS011;32805;53.556;9.944;2023-02-01T13:31:32;0.98;;;0.60;;
17141;SDS011;32805;53.556;9.944;2023-02-01T13:37:20;2.15;;;0.60;;
17141;SDS011;32805;53.556;9.944;2023-02-01T13:40:05;1.45;;;0.50;;
17141;SDS011;32805;53.556;9.944;2023-02-01T13:42:46;2.80;;;0.80;;
17141;SDS011;32805;53.556;9.944;2023-02-01T13:45:17;4.78;;;1.20;;
17141;SDS011;32805;53.556;9.944;2023-02-01T13:47:50;1.75;;;1.15;;
17141;SDS011;32805;53.556;9.944;2023-02-01T13:50:21;1.73;;;0.90;;
17141;SDS011;32805;53.556;9.944;2023-02-01T13:52:52;2.00;;;1.10;;
17141;SDS011;32805;53.556;9.944;2023-02-01T13:55:29;1.45;;;0.77;;
17141;SDS011;32805;53.556;9.944;2023-02-01T13:58:04;6.70;;;1.10;;
17141;SDS011;32805;53.556;9.944;2023-02-01T14:00:38;2.38;;;0.88;;
17141;SDS011;32805;53.556;9.944;2023-02-01T14:03:12;5.78;;;1.00;;
17141;SDS011;32805;53.556;9.944;2023-02-01T14:05:56;3.78;;;1.30;;
17141;SDS011;32805;53.556;9.944;2023-02-01T14:08:39;7.50;;;1.58;;
17141;SDS011;32805;53.556;9.944;2023-02-01T14:11:35;4.30;;;1.00;;
17141;SDS011;32805;53.556;9.944;2023-02-01T14:23:10;3.95;;;1.10;;
17141;SDS011;32805;53.556;9.944;2023-02-01T14:25:41;4.22;;;1.20;;
17141;SDS011;32805;53.556;9.944;2023-02-01T14:28:10;8.90;;;1.65;;
17141;SDS011;32805;53.556;9.944;2023-02-01T14:30:50;8.75;;;1.50;;
17141;SDS011;32805;53.556;9.944;2023-02-01T14:33:20;10.25;;;2.53;;
17141;SDS011;32805;53.556;9.944;2023-02-01T14:35:57;8.40;;;2.38;;
17141;SDS011;32805;53.556;9.944;2023-02-01T14:38:31;6.13;;;1.67;;
17141;SDS011;32805;53.556;9.944;2023-02-01T14:47:03;8.10;;;1.58;;
17141;SDS011;32805;53.556;9.944;2023-02-01T14:49:47;9.05;;;1.65;;
17141;SDS011;32805;53.556;9.944;2023-02-01T14:52:23;12.80;;;2.20;;
17141;SDS011;32805;53.556;9.944;2023-02-01T14:55:00;8.68;;;1.67;;
17141;SDS011;32805;53.556;9.944;2023-02-01T14:57:33;12.75;;;1.90;;
17141;SDS011;32805;53.556;9.944;2023-02-01T15:00:06;7.35;;;1.73;;
17141;SDS011;32805;53.556;9.944;2023-02-01T15:02:41;9.98;;;1.77;;
17141;SDS011;32805;53.556;9.944;2023-02-01T15:05:23;14.18;;;2.20;;
17141;SDS011;32805;53.556;9.944;2023-02-01T15:07:54;16.38;;;3.25;;
17141;SDS011;32805;53.556;9.944;2023-02-01T15:10:24;11.65;;;2.58;;
17141;SDS011;32805;53.556;9.944;2023-02-01T15:12:52;12.25;;;3.20;;
17141;SDS011;32805;53.556;9.944;2023-02-01T15:15:21;12.60;;;2.75;;
17141;SDS011;32805;53.556;9.944;2023-02-01T15:17:54;9.63;;;2.08;;
17141;SDS011;32805;53.556;9.944;2023-02-01T15:20:23;12.23;;;2.25;;
17141;SDS011;32805;53.556;9.944;2023-02-01T15:22:53;11.20;;;2.10;;
17141;SDS011;32805;53.556;9.944;2023-02-01T15:25:24;14.88;;;2.08;;
17141;SDS011;32805;53.556;9.944;2023-02-01T15:27:53;10.60;;;1.83;;
17141;SDS011;32805;53.556;9.944;2023-02-01T15:30:23;10.77;;;2.05;;
17141;SDS011;32805;53.556;9.944;2023-02-01T15:33:03;9.98;;;2.15;;
17141;SDS011;32805;53.556;9.944;2023-02-01T15:35:34;10.63;;;1.58;;
17141;SDS011;32805;53.556;9.944;2023-02-01T15:41:04;8.70;;;2.42;;